Time;durP1;ratioP1;P1;durP2;ratioP2;P2;SDS_P1;SDS_P2;PMS_P1;PMS_P2;Temp;Humidity;BMP_temperature;BMP_pressure;BME280_temperature;BME280_humidity;BME280_pressure;Samples;Min_cycle;Max_cycle;Signal;HPM_P1;HPM_P2
2021/10/30 00:02:11;;;;;;;85.90;18.77;;;;;;;2.47;100.00;95140.97;5036252;28;20447;-76
2021/10/30 00:04:37;;;;;;;45.95;17.38;;;;;;;2.71;100.00;95144.31;5038292;28;20043;-77
2021/10/30 00:07:03;;;;;;;271.60;21.80;;;;;;;2.56;100.00;95139.59;5034818;28;20048;-76
2021/10/30 00:09:28;;;;;;;140.70;20.83;;;;;;;2.44;100.00;95131.03;5036180;28;20061;-77
2021/10/30 00:11:54;;;;;;;295.30;25.20;;;;;;;2.40;100.00;95119.53;5024851;28;20049;-77
2021/10/30 00:14:19;;;;;;;57.03;17.75;;;;;;;2.51;100.00;95125.72;5032150;28;20041;-77
2021/10/30 00:16:45;;;;;;;56.13;16.10;;;;;;;2.63;100.00;95128.28;5036357;28;20049;-77
2021/10/30 00:19:11;;;;;;;51.85;16.30;;;;;;;2.72;100.00;95126.94;5036577;28;20053;-76
2021/10/30 00:21:36;;;;;;;50.53;14.13;;;;;;;2.83;100.00;95128.72;5036962;28;20495;-76
2021/10/30 00:24:02;;;;;;;85.20;14.18;;;;;;;2.83;100.00;95140.91;5035190;28;20049;-76
2021/10/30 00:26:27;;;;;;;41.45;12.95;;;;;;;2.74;100.00;95135.28;5034137;28;20041;-76
2021/10/30 00:28:53;;;;;;;102.78;13.50;;;;;;;2.65;100.00;95126.28;5035121;28;20547;-77
2021/10/30 00:31:18;;;;;;;64.47;14.32;;;;;;;2.47;100.00;95128.00;5019884;28;20053;-76
2021/10/30 00:33:44;;;;;;;156.60;16.98;;;;;;;2.31;100.00;95120.88;5016232;28;20038;-77
2021/10/30 00:36:10;;;;;;;190.40;17.05;;;;;;;2.07;100.00;95129.44;5023374;28;20250;-77
2021/10/30 00:38:36;;;;;;;137.55;17.75;;;;;;;2.21;100.00;95132.63;5036701;28;20049;-77
2021/10/30 00:41:06;;;;;;;247.50;18.75;;;;;;;2.15;100.00;95125.72;5036893;28;20088;-76
2021/10/30 00:43:33;;;;;;;213.80;19.63;;;;;;;2.10;100.00;95110.03;5037568;28;20033;-76
2021/10/30 00:45:58;;;;;;;45.45;15.15;;;;;;;2.39;100.00;95117.94;5033530;28;20119;-77
2021/10/30 00:48:24;;;;;;;52.08;13.98;;;;;;;2.54;100.00;95115.69;5036944;28;20134;-77
2021/10/30 00:50:50;;;;;;;62.13;13.65;;;;;;;2.58;100.00;95127.16;5031539;28;20053;-76
2021/10/30 00:53:17;;;;;;;107.45;15.13;;;;;;;2.54;100.00;95131.25;5015806;28;20060;-76
2021/10/30 00:55:44;;;;;;;175.90;14.85;;;;;;;2.34;100.00;95121.22;5025286;28;20042;-77
2021/10/30 00:58:11;;;;;;;64.50;12.05;;;;;;;2.36;100.00;95113.22;5036093;28;20042;-77
2021/10/30 01:00:37;;;;;;;63.90;12.68;;;;;;;2.52;100.00;95109.91;5035221;28;20045;-76
2021/10/30 01:03:05;;;;;;;169.25;15.57;;;;;;;2.14;100.00;95121.56;5035124;28;20041;-77
2021/10/30 01:05:31;;;;;;;234.10;18.02;;;;;;;2.11;100.00;95127.19;5038087;28;20072;-76
2021/10/30 01:07:56;;;;;;;50.13;14.18;;;;;;;2.33;100.00;95121.41;5040041;28;20037;-77
2021/10/30 01:10:22;;;;;;;68.35;14.15;;;;;;;2.53;100.00;95119.28;5038850;28;20052;-76
2021/10/30 01:12:48;;;;;;;36.92;13.40;;;;;;;2.49;100.00;95118.16;5022184;28;20033;-77
2021/10/30 01:15:13;;;;;;;47.33;14.05;;;;;;;2.64;100.00;95119.50;5037967;28;20131;-77
2021/10/30 01:17:39;;;;;;;55.70;13.60;;;;;;;2.69;100.00;95106.63;5039882;28;20076;-77
2021/10/30 01:20:05;;;;;;;49.30;13.05;;;;;;;2.64;100.00;95109.09;5038995;28;20045;-77
2021/10/30 01:22:35;;;;;;;49.08;12.60;;;;;;;2.54;100.00;95100.09;5035896;28;20045;-77
2021/10/30 01:25:02;;;;;;;75.78;14.98;;;;;;;2.30;100.00;95096.72;5038915;28;20038;-76
2021/10/30 01:27:27;;;;;;;38.08;13.20;;;;;;;2.52;100.00;95104.72;5037889;28;20052;-77
2021/10/30 01:29:53;;;;;;;37.83;12.25;;;;;;;2.48;100.00;95103.56;5034936;28;20042;-77
2021/10/30 01:32:20;;;;;;;124.15;14.27;;;;;;;2.08;100.00;95099.06;5023052;28;20109;-77
2021/10/30 01:34:47;;;;;;;34.58;13.10;;;;;;;2.09;100.00;95090.28;5024666;28;20094;-77
2021/10/30 01:37:13;;;;;;;47.97;12.23;;;;;;;2.22;100.00;95091.88;5039228;28;20068;-76
2021/10/30 01:39:39;;;;;;;133.60;14.93;;;;;;;2.17;100.00;95086.56;5038659;28;20123;-77
2021/10/30 01:42:06;;;;;;;85.13;13.35;;;;;;;2.16;100.00;95093.56;5032887;28;20061;-77
2021/10/30 01:44:31;;;;;;;52.10;11.63;;;;;;;2.07;100.00;95079.34;5029764;28;20046;-77
2021/10/30 01:47:01;;;;;;;40.20;12.35;;;;;;;1.94;100.00;95079.56;5035029;28;20041;-76
2021/10/30 01:49:29;;;;;;;69.65;12.50;;;;;;;1.78;100.00;95071.44;5034501;28;20053;-76
2021/10/30 01:51:55;;;;;;;39.40;11.45;;;;;;;1.75;100.00;95077.06;5024066;28;20065;-75
2021/10/30 01:54:21;;;;;;;26.27;11.55;;;;;;;1.64;100.00;95075.22;5034447;28;20071;-77
2021/10/30 01:56:47;;;;;;;19.80;10.57;;;;;;;1.51;100.00;95074.44;5029268;28;20561;-77
2021/10/30 01:59:13;;;;;;;40.40;11.27;;;;;;;1.34;100.00;95071.69;5018776;28;20041;-77
2021/10/30 02:01:38;;;;;;;26.95;10.18;;;;;;;1.38;100.00;95066.88;5036264;28;20046;-77
2021/10/30 02:04:04;;;;;;;26.00;11.48;;;;;;;1.23;100.00;95064.66;5035156;28;20434;-76
2021/10/30 02:06:30;;;;;;;23.55;10.95;;;;;;;1.33;100.00;95064.13;5037186;28;20057;-77
2021/10/30 02:08:55;;;;;;;20.02;10.30;;;;;;;1.34;100.00;95055.34;5035025;28;20080;-76
2021/10/30 02:11:21;;;;;;;32.72;11.68;;;;;;;1.28;100.00;95056.22;5037018;28;20414;-77
2021/10/30 02:13:46;;;;;;;31.65;10.88;;;;;;;1.32;100.00;95052.16;5033084;28;20052;-77
2021/10/30 02:16:13;;;;;;;36.25;11.32;;;;;;;1.25;100.00;95049.69;5029211;28;20145;-76
2021/10/30 02:18:42;;;;;;;31.35;11.35;;;;;;;1.26;100.00;95053.06;5040974;28;20037;-77
2021/10/30 02:21:08;;;;;;;71.32;12.77;;;;;;;1.01;100.00;95046.25;5018683;28;20049;-76
2021/10/30 02:23:34;;;;;;;60.85;13.63;;;;;;;1.05;100.00;95047.38;5050992;28;20045;-77
2021/10/30 02:26:00;;;;;;;139.10;15.68;;;;;;;0.74;100.00;95046.56;5026151;28;20076;-77
2021/10/30 02:28:25;;;;;;;22.30;12.55;;;;;;;0.98;100.00;95051.88;5036068;28;20049;-76
2021/10/30 02:30:51;;;;;;;119.22;15.02;;;;;;;0.78;100.00;95052.13;5036645;28;20049;-77
2021/10/30 02:33:16;;;;;;;38.30;13.00;;;;;;;0.68;100.00;95055.22;5035521;28;20371;-76
2021/10/30 02:35:42;;;;;;;72.57;13.93;;;;;;;0.94;100.00;95058.50;5035616;28;20042;-77
2021/10/30 02:38:08;;;;;;;78.65;13.77;;;;;;;0.91;100.00;95051.16;5029051;28;20145;-76
2021/10/30 02:40:34;;;;;;;61.35;13.57;;;;;;;0.86;100.00;95060.38;5033332;28;20045;-76
2021/10/30 02:43:00;;;;;;;93.88;13.80;;;;;;;0.85;100.00;95053.59;5035735;28;20396;-77
2021/10/30 02:45:26;;;;;;;71.70;13.95;;;;;;;0.84;100.00;95048.66;5036137;28;20124;-77
2021/10/30 02:47:51;;;;;;;52.03;13.80;;;;;;;0.90;100.00;95045.16;5036146;28;20041;-76
2021/10/30 02:50:17;;;;;;;51.45;12.30;;;;;;;1.12;100.00;95037.72;5035488;28;20045;-77
2021/10/30 02:52:43;;;;;;;34.60;12.15;;;;;;;0.97;100.00;95040.69;5034657;28;20045;-76
2021/10/30 02:55:09;;;;;;;33.67;10.70;;;;;;;1.25;100.00;95041.13;5034370;28;20049;-77
2021/10/30 02:57:35;;;;;;;30.77;11.23;;;;;;;1.25;100.00;95031.56;5028540;28;20108;-76
2021/10/30 03:00:00;;;;;;;22.58;11.10;;;;;;;1.17;100.00;95027.47;5019884;28;20056;-76
2021/10/30 03:02:26;;;;;;;70.75;12.02;;;;;;;1.21;100.00;95033.78;5014372;28;20046;-76
2021/10/30 03:04:52;;;;;;;43.90;11.43;;;;;;;1.19;100.00;95041.00;5022586;28;20060;-76
2021/10/30 03:07:19;;;;;;;44.25;11.75;;;;;;;1.13;100.00;95043.69;5034850;28;20068;-77
2021/10/30 03:09:49;;;;;;;53.67;11.35;;;;;;;0.97;100.00;95040.69;5035001;28;20041;-76
2021/10/30 03:12:15;;;;;;;53.72;11.23;;;;;;;1.09;100.00;95032.16;5035130;28;20520;-77
2021/10/30 03:14:40;;;;;;;43.05;10.13;;;;;;;1.08;100.00;95028.00;5031736;28;20068;-76
2021/10/30 03:17:06;;;;;;;60.53;10.48;;;;;;;1.02;100.00;95021.88;5034203;28;20068;-77
2021/10/30 03:19:32;;;;;;;87.30;10.93;;;;;;;0.88;100.00;95021.28;5033559;28;20088;-77
2021/10/30 03:21:58;;;;;;;57.92;10.50;;;;;;;1.00;100.00;95018.72;5015745;28;20038;-77
2021/10/30 03:24:24;;;;;;;41.28;10.40;;;;;;;1.06;100.00;95022.25;5030380;28;20045;-76
2021/10/30 03:26:49;;;;;;;86.03;11.70;;;;;;;0.99;100.00;95011.97;5039836;28;20056;-77
2021/10/30 03:29:15;;;;;;;46.88;11.27;;;;;;;1.03;100.00;95013.09;5033485;28;20128;-77
2021/10/30 03:31:41;;;;;;;29.88;10.85;;;;;;;0.97;100.00;95014.00;5033344;28;20104;-76
2021/10/30 03:34:06;;;;;;;88.43;11.40;;;;;;;0.96;100.00;95012.41;5033613;28;20046;-78
2021/10/30 03:36:32;;;;;;;54.25;11.50;;;;;;;0.94;100.00;95011.84;5034056;28;20045;-77
2021/10/30 03:38:57;;;;;;;43.42;10.35;;;;;;;0.85;100.00;95014.75;5033587;28;20045;-77
2021/10/30 03:41:23;;;;;;;46.03;10.40;;;;;;;0.77;100.00;95009.88;5033018;28;20045;-77
2021/10/30 03:43:48;;;;;;;27.63;10.68;;;;;;;0.75;100.00;95014.50;5015121;28;20041;-77
2021/10/30 03:46:14;;;;;;;21.70;9.82;;;;;;;0.66;100.00;94997.66;5026727;28;20538;-76
2021/10/30 03:48:39;;;;;;;22.45;10.75;;;;;;;0.66;100.00;94982.13;5025224;28;20046;-76
2021/10/30 03:51:05;;;;;;;59.60;11.43;;;;;;;0.68;100.00;94980.13;5031925;28;20095;-76
2021/10/30 03:53:31;;;;;;;33.40;10.68;;;;;;;0.66;100.00;94982.13;5031972;28;20056;-76
2021/10/30 03:55:56;;;;;;;37.10;10.68;;;;;;;0.64;100.00;94968.63;5032822;28;20051;-77
2021/10/30 03:58:22;;;;;;;25.27;11.10;;;;;;;0.52;100.00;94971.94;5033097;28;20056;-76
2021/10/30 04:00:48;;;;;;;52.88;10.77;;;;;;;0.63;100.00;94969.63;5033152;28;20045;-77
2021/10/30 04:03:13;;;;;;;41.08;10.60;;;;;;;0.63;100.00;94967.03;5023080;28;20048;-76
2021/10/30 04:05:39;;;;;;;24.92;10.48;;;;;;;0.60;100.00;94967.47;5032580;28;20044;-76
2021/10/30 04:08:07;;;;;;;38.30;11.10;;;;;;;0.46;100.00;94957.28;5025812;28;20050;-76
2021/10/30 04:10:32;;;;;;;26.77;10.93;;;;;;;0.43;100.00;94962.91;5033859;28;20111;-76
2021/10/30 04:12:58;;;;;;;46.15;11.20;;;;;;;0.44;100.00;94964.47;5029004;28;20395;-77
2021/10/30 04:15:24;;;;;;;23.67;10.98;;;;;;;0.44;100.00;94959.28;5034564;28;20483;-77
2021/10/30 04:17:49;;;;;;;24.63;10.52;;;;;;;0.46;100.00;94969.44;5032353;28;20049;-76
2021/10/30 04:20:15;;;;;;;96.20;12.80;;;;;;;0.32;100.00;94966.22;5013809;28;20112;-77
2021/10/30 04:22:41;;;;;;;50.17;11.10;;;;;;;0.44;100.00;94964.47;5024546;28;20097;-76
2021/10/30 04:25:07;;;;;;;48.22;10.32;;;;;;;0.43;100.00;94967.28;5014840;28;20443;-76
2021/10/30 04:27:32;;;;;;;31.98;11.80;;;;;;;0.16;100.00;94968.41;5029106;28;20049;-76
2021/10/30 04:29:58;;;;;;;27.25;10.65;;;;;;;0.27;100.00;94974.63;5034207;28;20445;-76
2021/10/30 04:32:23;;;;;;;96.75;11.75;;;;;;;0.11;100.00;94965.66;5032299;28;20419;-76
2021/10/30 04:34:58;;;;;;;44.03;10.52;;;;;;;-0.02;100.00;94960.66;5031672;28;20578;-77
2021/10/30 04:37:24;;;;;;;33.13;11.68;;;;;;;-0.13;100.00;94958.78;5031928;28;20509;-76
2021/10/30 04:39:51;;;;;;;46.55;12.13;;;;;;;-0.08;100.00;94961.50;5035183;28;20041;-77
2021/10/30 04:42:18;;;;;;;30.67;11.85;;;;;;;-0.04;100.00;94947.16;5034477;28;20069;-78
2021/10/30 04:44:45;;;;;;;55.28;11.68;;;;;;;-0.06;100.00;94943.97;5024384;28;20041;-76
2021/10/30 04:47:12;;;;;;;20.15;10.65;;;;;;;0.13;100.00;94942.97;5021181;28;20052;-76
2021/10/30 04:49:38;;;;;;;26.98;10.48;;;;;;;0.31;100.00;94933.59;5037621;28;20072;-76
2021/10/30 04:52:06;;;;;;;17.85;10.32;;;;;;;0.34;100.00;94935.72;5036455;28;20041;-77
2021/10/30 04:54:32;;;;;;;22.58;10.20;;;;;;;0.31;100.00;94928.41;5035506;28;20125;-77
2021/10/30 04:56:57;;;;;;;38.40;11.15;;;;;;;0.27;100.00;94922.09;5036928;28;20128;-76
2021/10/30 04:59:23;;;;;;;20.63;11.13;;;;;;;0.39;100.00;94915.16;5038033;28;20495;-76
2021/10/30 05:01:50;;;;;;;49.22;11.38;;;;;;;-0.03;100.00;94917.66;5036912;28;20041;-76
2021/10/30 05:04:15;;;;;;;52.10;11.90;;;;;;;-0.02;100.00;94911.50;5017972;28;20050;-77
2021/10/30 05:06:41;;;;;;;42.70;11.43;;;;;;;-0.23;100.00;94913.53;5031999;28;20071;-76
2021/10/30 05:09:06;;;;;;;28.65;11.10;;;;;;;-0.16;100.00;94907.47;5036396;28;20486;-77
2021/10/30 05:11:32;;;;;;;27.75;9.80;;;;;;;-0.18;100.00;94908.47;5037423;28;20143;-76
2021/10/30 05:13:58;;;;;;;16.35;9.25;;;;;;;-0.05;100.00;94904.16;5037325;28;20059;-77
2021/10/30 05:16:23;;;;;;;20.67;9.27;;;;;;;-0.11;100.00;94895.47;5033251;28;20045;-76
2021/10/30 05:18:49;;;;;;;29.35;9.52;;;;;;;-0.13;100.00;94888.94;5037653;28;20042;-77
2021/10/30 05:21:15;;;;;;;22.65;9.27;;;;;;;-0.02;100.00;94899.34;5037710;28;20045;-78
2021/10/30 05:23:41;;;;;;;19.85;8.10;;;;;;;-0.15;100.00;94888.38;5025545;28;20042;-77
2021/10/30 05:26:07;;;;;;;20.70;8.85;;;;;;;-0.22;100.00;94878.88;5029786;28;20046;-77
2021/10/30 05:28:33;;;;;;;41.58;9.32;;;;;;;-0.19;100.00;94883.66;5036136;28;20037;-76
2021/10/30 05:30:59;;;;;;;19.05;9.10;;;;;;;-0.34;100.00;94878.03;5036710;28;20041;-77
2021/10/30 05:33:25;;;;;;;25.65;9.65;;;;;;;-0.36;100.00;94880.03;5035845;28;20095;-77
2021/10/30 05:35:51;;;;;;;20.73;8.95;;;;;;;-0.40;100.00;94891.84;5036128;28;20053;-76
2021/10/30 05:38:17;;;;;;;17.98;9.30;;;;;;;-0.58;100.00;94884.84;5036100;28;20052;-77
2021/10/30 05:40:44;;;;;;;54.03;10.85;;;;;;;-0.48;100.00;94884.34;5036632;28;20076;-77
2021/10/30 05:43:12;;;;;;;39.90;10.25;;;;;;;-0.70;100.00;94877.03;5030657;28;20411;-77
2021/10/30 05:45:43;;;;;;;45.33;10.77;;;;;;;-0.75;100.00;94871.69;5028636;28;20044;-77
2021/10/30 05:48:10;;;;;;;60.10;12.05;;;;;;;-0.82;100.00;94864.03;5035532;28;20046;-77
2021/10/30 05:50:37;;;;;;;51.13;13.18;;;;;;;-0.94;100.00;94861.31;5034087;28;20064;-77
2021/10/30 05:53:03;;;;;;;66.05;13.63;;;;;;;-1.05;100.00;94849.09;5034195;28;20084;-77
2021/10/30 05:55:29;;;;;;;59.05;14.75;;;;;;;-0.93;100.00;94857.75;5034632;28;20042;-77
2021/10/30 05:57:55;;;;;;;111.10;18.35;;;;;;;-0.94;100.00;94856.16;5027833;28;20618;-77
2021/10/30 06:00:20;;;;;;;109.10;15.95;;;;;;;-0.93;100.00;94857.75;5020759;28;20045;-76
2021/10/30 06:02:46;;;;;;;41.28;13.80;;;;;;;-0.91;100.00;94858.31;5032616;28;20042;-77
2021/10/30 06:05:11;;;;;;;38.95;13.30;;;;;;;-0.72;100.00;94868.69;5019142;28;20045;-77
2021/10/30 06:07:38;;;;;;;32.60;11.88;;;;;;;-0.48;100.00;94864.47;5036340;28;20041;-77
2021/10/30 06:10:04;;;;;;;34.55;12.25;;;;;;;-0.37;100.00;94857.78;5029478;28;20072;-77
2021/10/30 06:12:30;;;;;;;29.05;11.75;;;;;;;-0.24;100.00;94860.22;5026781;28;20088;-77
2021/10/30 06:14:55;;;;;;;116.85;12.93;;;;;;;-0.43;100.00;94856.06;5034888;28;20057;-77
2021/10/30 06:17:21;;;;;;;26.30;11.00;;;;;;;-0.24;100.00;94844.69;5033841;28;20097;-77
2021/10/30 06:19:47;;;;;;;71.10;12.90;;;;;;;-0.41;100.00;94849.66;5033613;28;20044;-77
2021/10/30 06:22:13;;;;;;;68.72;12.00;;;;;;;-0.31;100.00;94833.66;5033551;28;20045;-76
2021/10/30 06:24:39;;;;;;;36.92;11.52;;;;;;;-0.32;100.00;94820.94;5035710;28;20045;-76
2021/10/30 06:27:05;;;;;;;23.60;11.95;;;;;;;-0.33;100.00;94809.81;5035505;28;20065;-76
2021/10/30 06:29:31;;;;;;;84.38;13.50;;;;;;;-0.54;100.00;94814.41;5034044;28;20042;-77
2021/10/30 06:31:56;;;;;;;47.17;12.70;;;;;;;-0.30;100.00;94824.09;5039731;28;20037;-77
2021/10/30 06:34:22;;;;;;;72.72;13.30;;;;;;;-0.44;100.00;94829.41;5035290;28;20041;-78
2021/10/30 06:36:48;;;;;;;32.85;12.93;;;;;;;-0.16;100.00;94819.56;5034266;28;20041;-77
2021/10/30 06:39:14;;;;;;;66.15;13.50;;;;;;;-0.35;100.00;94811.81;5033728;28;20558;-77
2021/10/30 06:41:40;;;;;;;39.03;12.93;;;;;;;-0.13;100.00;94808.75;5032732;28;20415;-77
2021/10/30 06:44:06;;;;;;;45.28;12.77;;;;;;;-0.15;100.00;94805.63;5033820;28;20048;-76
2021/10/30 06:46:31;;;;;;;24.60;11.75;;;;;;;-0.01;100.00;94796.66;5032382;28;20041;-76
2021/10/30 06:48:58;;;;;;;34.72;12.75;;;;;;;0.04;100.00;94814.88;5033186;28;20044;-77
2021/10/30 06:51:24;;;;;;;38.92;12.57;;;;;;;-0.18;100.00;94817.19;5034069;28;20041;-77
2021/10/30 06:53:50;;;;;;;43.95;13.27;;;;;;;-0.22;100.00;94816.81;5034509;28;20045;-77
2021/10/30 06:56:16;;;;;;;49.28;13.88;;;;;;;-0.29;100.00;94830.84;5033056;28;20077;-77
2021/10/30 06:58:42;;;;;;;64.97;12.43;;;;;;;-0.16;100.00;94811.78;5034334;28;20061;-77
2021/10/30 07:01:08;;;;;;;32.53;11.40;;;;;;;-0.05;100.00;94826.56;5033694;28;20120;-77
2021/10/30 07:03:36;;;;;;;36.45;11.93;;;;;;;0.11;100.00;94813.00;5023750;28;20045;-76
2021/10/30 07:06:01;;;;;;;22.52;9.85;;;;;;;0.14;100.00;94794.47;5042369;28;20545;-77
2021/10/30 07:08:27;;;;;;;26.30;9.57;;;;;;;0.41;100.00;94814.78;5023749;28;20049;-77
2021/10/30 07:10:52;;;;;;;42.28;10.02;;;;;;;0.17;100.00;94814.72;5030805;28;20045;-77
2021/10/30 07:13:18;;;;;;;25.00;9.50;;;;;;;0.08;100.00;94804.91;5033209;28;20044;-77
2021/10/30 07:15:44;;;;;;;30.48;10.13;;;;;;;0.37;100.00;94816.22;5033476;28;20129;-77
2021/10/30 07:18:10;;;;;;;21.02;8.88;;;;;;;0.27;100.00;94808.22;5033766;28;20056;-77
2021/10/30 07:20:35;;;;;;;19.40;9.45;;;;;;;0.46;100.00;94814.09;5032739;28;20045;-77
2021/10/30 07:23:01;;;;;;;15.27;8.88;;;;;;;0.47;100.00;94808.69;5028697;28;20517;-77
2021/10/30 07:25:27;;;;;;;15.68;9.43;;;;;;;0.41;100.00;94812.19;5023455;28;20042;-76
2021/10/30 07:27:53;;;;;;;17.38;10.15;;;;;;;0.45;100.00;94805.56;5037855;28;20502;-77
2021/10/30 07:30:20;;;;;;;17.77;9.43;;;;;;;0.65;100.00;94804.47;5028451;28;20049;-76
2021/10/30 07:32:52;;;;;;;16.23;9.35;;;;;;;0.73;100.00;94809.28;5030962;28;20045;-77
2021/10/30 07:35:20;;;;;;;16.50;9.40;;;;;;;0.61;100.00;94798.16;5029807;28;20046;-76
2021/10/30 07:37:46;;;;;;;18.85;8.55;;;;;;;0.51;100.00;94804.66;5024122;28;20053;-76
2021/10/30 07:40:12;;;;;;;20.33;9.80;;;;;;;0.42;100.00;94800.81;5023440;28;20043;-76
2021/10/30 07:42:39;;;;;;;24.02;10.95;;;;;;;0.10;100.00;94808.84;5023638;28;20046;-76
2021/10/30 07:45:05;;;;;;;22.50;11.50;;;;;;;0.32;100.00;94805.75;5028330;28;20041;-77
2021/10/30 07:47:31;;;;;;;21.05;10.55;;;;;;;0.46;100.00;94796.78;5038791;28;20044;-78
2021/10/30 07:50:00;;;;;;;34.00;10.30;;;;;;;0.50;100.00;94787.56;5033053;28;20053;-79
2021/10/30 07:52:26;;;;;;;26.92;12.27;;;;;;;0.39;100.00;94790.94;5027887;28;20093;-78
2021/10/30 07:54:51;;;;;;;29.33;12.65;;;;;;;0.56;100.00;94795.44;5026814;28;20061;-79
2021/10/30 07:57:17;;;;;;;20.52;10.98;;;;;;;0.97;100.00;94780.81;5030925;28;20050;-77
2021/10/30 07:59:42;;;;;;;24.15;11.32;;;;;;;0.83;100.00;94773.28;5022283;28;20045;-77
2021/10/30 08:02:08;;;;;;;20.33;10.90;;;;;;;1.07;100.00;94770.66;5029264;28;20057;-77
2021/10/30 08:04:35;;;;;;;19.95;10.68;;;;;;;1.35;100.00;94771.72;5035632;28;20041;-78
2021/10/30 08:07:01;;;;;;;22.38;11.82;;;;;;;1.18;100.00;94772.44;5040244;28;20105;-77
2021/10/30 08:09:26;;;;;;;20.38;11.93;;;;;;;1.22;100.00;94765.00;5048789;28;20056;-78
2021/10/30 08:11:52;;;;;;;19.42;11.80;;;;;;;1.32;100.00;94757.44;5042387;28;20042;-78
2021/10/30 08:14:18;;;;;;;20.00;11.80;;;;;;;1.41;100.00;94750.09;5033998;28;20481;-78
2021/10/30 08:16:44;;;;;;;22.10;11.13;;;;;;;1.88;100.00;94755.09;5022913;28;20051;-78
2021/10/30 08:19:09;;;;;;;20.48;11.60;;;;;;;2.07;100.00;94752.31;5027029;28;20748;-80
2021/10/30 08:21:35;;;;;;;18.77;11.48;;;;;;;2.03;100.00;94740.81;5025018;28;20104;-80
2021/10/30 08:24:03;;;;;;;21.50;12.13;;;;;;;2.30;100.00;94751.38;5031197;28;20048;-80
2021/10/30 08:26:29;;;;;;;21.92;11.75;;;;;;;2.31;100.00;94736.59;5047880;28;20064;-77
2021/10/30 08:28:55;;;;;;;20.92;12.07;;;;;;;2.23;100.00;94741.16;5037381;28;20049;-78
2021/10/30 08:31:22;;;;;;;25.73;14.32;;;;;;;2.23;100.00;94738.53;5036793;28;20052;-80
2021/10/30 08:33:48;;;;;;;24.02;12.73;;;;;;;2.37;100.00;94720.06;5032697;28;20065;-78
2021/10/30 08:36:13;;;;;;;26.27;12.93;;;;;;;2.63;100.00;94725.63;5025182;28;20044;-77
2021/10/30 08:38:39;;;;;;;22.23;13.27;;;;;;;2.67;100.00;94711.13;5038136;28;20932;-77
2021/10/30 08:41:05;;;;;;;20.85;12.32;;;;;;;2.82;100.00;94721.75;5034541;28;20090;-78
2021/10/30 08:43:31;;;;;;;22.95;13.05;;;;;;;2.95;100.00;94716.19;5041396;28;20105;-78
2021/10/30 08:45:58;;;;;;;19.38;12.05;;;;;;;3.06;100.00;94713.72;5039064;28;20065;-78
2021/10/30 08:48:25;;;;;;;21.63;12.20;;;;;;;3.20;100.00;94707.13;5020291;28;20095;-80
2021/10/30 08:50:53;;;;;;;19.48;11.55;;;;;;;3.39;100.00;94696.41;5020458;28;20046;-78
2021/10/30 08:53:22;;;;;;;19.55;11.90;;;;;;;3.50;100.00;94695.50;5030276;28;20067;-81
2021/10/30 08:55:48;;;;;;;20.65;11.75;;;;;;;3.86;100.00;94698.47;5030411;28;20041;-81
2021/10/30 08:58:15;;;;;;;16.52;10.27;;;;;;;3.94;100.00;94690.22;5034999;28;20090;-81
2021/10/30 09:00:49;;;;;;;16.10;9.73;;;;;;;3.97;100.00;94675.91;5035358;28;20052;-81
2021/10/30 09:03:18;;;;;;;18.20;9.68;;;;;;;4.30;100.00;94682.69;5039731;28;20056;-80
2021/10/30 09:05:48;;;;;;;14.57;9.10;;;;;;;4.83;100.00;94684.56;5017848;28;20057;-77
2021/10/30 09:08:13;;;;;;;13.82;8.82;;;;;;;4.59;100.00;94679.75;5027318;28;20750;-77
2021/10/30 09:10:43;;;;;;;15.57;9.45;;;;;;;4.75;100.00;94672.78;5016125;28;20059;-78
2021/10/30 09:13:11;;;;;;;13.90;9.15;;;;;;;4.66;100.00;94675.09;5016320;28;20049;-78
2021/10/30 09:15:49;;;;;;;12.82;8.20;;;;;;;4.83;100.00;94674.16;5015663;28;20072;-78
2021/10/30 09:18:27;;;;;;;13.35;8.82;;;;;;;4.95;100.00;94672.09;5013862;28;20042;-76
2021/10/30 09:20:54;;;;;;;17.45;8.93;;;;;;;5.46;100.00;94665.50;5025696;28;20030;-77
2021/10/30 09:23:22;;;;;;;12.60;7.60;;;;;;;5.88;96.21;94667.16;5019895;28;20037;-77
2021/10/30 09:25:59;;;;;;;11.95;7.20;;;;;;;6.26;94.11;94667.69;5032432;28;20044;-77
2021/10/30 09:28:28;;;;;;;12.23;7.22;;;;;;;6.57;91.59;94652.00;5019686;28;20053;-77
2021/10/30 09:31:08;;;;;;;11.98;7.72;;;;;;;6.88;91.29;94657.94;5029236;28;20069;-77
2021/10/30 09:33:47;;;;;;;11.48;6.68;;;;;;;7.83;87.45;94665.06;5023515;28;20050;-77
2021/10/30 09:36:13;;;;;;;9.65;6.75;;;;;;;9.68;78.19;94658.78;5034997;28;20048;-77
2021/10/30 09:38:44;;;;;;;10.82;7.00;;;;;;;10.71;76.63;94651.16;5037912;28;20045;-77
2021/10/30 09:41:32;;;;;;;9.15;6.28;;;;;;;10.51;74.66;94653.06;5028191;28;20140;-77
2021/10/30 09:44:00;;;;;;;9.20;6.13;;;;;;;11.79;71.38;94649.00;5019492;28;20062;-77
2021/10/30 09:46:30;;;;;;;10.38;6.15;;;;;;;11.76;69.80;94639.06;5034761;28;20441;-77
2021/10/30 09:48:58;;;;;;;10.52;6.03;;;;;;;12.50;68.16;94643.19;5035324;28;20123;-78
2021/10/30 09:51:51;;;;;;;9.27;5.85;;;;;;;13.15;64.62;94643.59;5030379;28;20103;-76
2021/10/30 09:54:33;;;;;;;8.60;5.20;;;;;;;14.01;62.91;94631.59;5027806;28;20095;-77
2021/10/30 09:56:59;;;;;;;7.82;5.07;;;;;;;14.42;59.52;94626.09;5029689;28;20041;-77
2021/10/30 09:59:27;;;;;;;9.25;5.82;;;;;;;14.43;60.62;94628.44;5031802;28;20071;-77
2021/10/30 10:01:53;;;;;;;8.25;5.32;;;;;;;15.04;56.39;94630.91;5023356;28;20037;-76
2021/10/30 10:04:20;;;;;;;9.65;5.40;;;;;;;15.17;58.23;94633.66;5015327;28;20045;-77
2021/10/30 10:06:50;;;;;;;8.25;5.45;;;;;;;15.06;59.33;94636.66;5030905;28;20041;-77
2021/10/30 10:09:17;;;;;;;8.70;5.57;;;;;;;14.22;58.74;94628.31;5026787;28;20561;-77
2021/10/30 10:11:45;;;;;;;8.30;5.45;;;;;;;15.03;57.84;94624.06;5025761;28;20041;-77
2021/10/30 10:14:22;;;;;;;7.70;5.22;;;;;;;15.54;55.60;94620.66;5032372;28;20041;-77
2021/10/30 10:16:52;;;;;;;8.38;5.20;;;;;;;15.85;57.43;94630.16;5024714;28;20053;-77
2021/10/30 10:19:20;;;;;;;8.20;4.75;;;;;;;16.80;52.90;94617.81;5030501;28;20510;-76
2021/10/30 10:21:48;;;;;;;7.18;4.93;;;;;;;17.07;50.16;94622.88;5031711;28;20933;-76
2021/10/30 10:24:17;;;;;;;7.55;5.15;;;;;;;16.84;52.74;94619.81;5029068;28;20045;-78
2021/10/30 10:26:47;;;;;;;8.23;5.25;;;;;;;17.70;48.98;94622.47;5020141;28;20062;-80
2021/10/30 10:29:14;;;;;;;7.57;4.70;;;;;;;17.82;52.01;94614.44;5016874;28;20041;-77
2021/10/30 10:31:52;;;;;;;8.10;5.22;;;;;;;17.23;49.32;94604.38;5014772;28;20138;-75
2021/10/30 10:34:23;;;;;;;7.68;5.15;;;;;;;18.22;50.09;94596.16;5028516;28;20045;-76
2021/10/30 10:37:12;;;;;;;7.50;4.90;;;;;;;19.03;45.82;94593.22;5029117;28;20038;-75
2021/10/30 10:39:46;;;;;;;8.15;5.45;;;;;;;16.96;50.44;94590.63;5028885;28;20048;-76
2021/10/30 10:42:13;;;;;;;10.02;5.00;;;;;;;17.53;50.37;94598.75;5027585;28;20051;-75
2021/10/30 10:44:42;;;;;;;7.95;4.97;;;;;;;19.06;46.53;94592.53;5025613;28;20059;-75
2021/10/30 10:47:39;;;;;;;6.28;4.57;;;;;;;18.87;48.01;94580.66;5028287;28;20038;-76
2021/10/30 10:50:16;;;;;;;6.57;4.57;;;;;;;17.94;46.87;94575.63;5028236;28;20048;-76
2021/10/30 10:52:44;;;;;;;6.38;4.30;;;;;;;18.08;50.69;94573.34;5039829;28;20115;-76
2021/10/30 10:55:10;;;;;;;6.88;5.10;;;;;;;18.47;47.23;94557.59;5017313;28;20053;-76
2021/10/30 10:57:44;;;;;;;7.35;4.80;;;;;;;16.97;47.68;94560.28;5025099;28;20558;-76
2021/10/30 11:00:12;;;;;;;7.63;4.85;;;;;;;17.02;53.11;94562.72;5029086;28;20073;-75
2021/10/30 11:02:40;;;;;;;7.00;4.47;;;;;;;17.32;51.63;94565.13;5027160;28;20049;-76
2021/10/30 11:05:08;;;;;;;11.43;5.30;;;;;;;17.14;53.53;94554.75;5016298;28;20141;-75
2021/10/30 11:07:39;;;;;;;8.68;4.60;;;;;;;16.82;54.91;94552.97;5029622;28;20041;-75
2021/10/30 11:10:14;;;;;;;6.80;4.25;;;;;;;17.37;49.96;94546.28;5029414;28;20415;-76
2021/10/30 11:13:04;;;;;;;6.20;4.50;;;;;;;17.02;55.94;94536.13;5029365;28;20041;-75
2021/10/30 11:15:49;;;;;;;8.23;4.50;;;;;;;16.73;55.00;94535.22;5029200;28;20517;-75
2021/10/30 11:18:46;;;;;;;8.63;4.80;;;;;;;16.35;53.80;94536.31;5027253;28;20095;-76
2021/10/30 11:21:25;;;;;;;9.23;4.85;;;;;;;16.00;56.42;94534.00;5010310;28;20042;-75